createdAt,value
2024-04-21T00:01:31.480Z,20.13
2024-04-21T00:04:03.384Z,20.13
2024-04-21T00:06:33.845Z,20.10
2024-04-21T00:09:04.345Z,20.20
2024-04-21T00:11:34.747Z,20.19
2024-04-21T00:14:05.304Z,20.16
2024-04-21T00:16:35.653Z,20.13
2024-04-21T00:19:06.223Z,20.12
2024-04-21T00:21:36.796Z,20.09
2024-04-21T00:24:07.387Z,20.15
2024-04-21T00:26:37.650Z,20.16
2024-04-21T00:29:09.266Z,20.12
2024-04-21T00:31:41.050Z,20.10
2024-04-21T00:34:11.824Z,20.03
2024-04-21T00:36:45.916Z,20.05
2024-04-21T00:39:16.312Z,20.08
2024-04-21T00:41:46.722Z,19.97
2024-04-21T00:44:17.078Z,19.97
2024-04-21T00:46:47.743Z,19.92
2024-04-21T00:49:18.321Z,19.79
2024-04-21T00:51:49.464Z,19.64
2024-04-21T00:54:20.117Z,19.65
2024-04-21T00:56:51.500Z,19.66
2024-04-21T00:59:21.429Z,19.72
2024-04-21T01:01:52.815Z,19.71
2024-04-21T01:04:24.794Z,19.65
2024-04-21T01:06:55.175Z,19.59
2024-04-21T01:09:25.566Z,19.57
2024-04-21T01:11:55.882Z,19.50
2024-04-21T01:14:26.343Z,19.48
2024-04-21T01:16:56.502Z,19.48
2024-04-21T01:19:26.970Z,19.31
2024-04-21T01:21:57.289Z,19.23
2024-04-21T01:24:27.749Z,19.03
2024-04-21T01:26:58.311Z,18.96
2024-04-21T01:29:28.725Z,19.06
2024-04-21T01:31:58.905Z,19.08
2024-04-21T01:34:29.416Z,19.06
2024-04-21T01:36:59.872Z,18.96
2024-04-21T01:39:30.345Z,18.93
2024-04-21T01:42:00.487Z,18.96
2024-04-21T01:44:30.943Z,18.89
2024-04-21T01:47:01.350Z,18.84
2024-04-21T01:49:31.907Z,18.83
2024-04-21T01:52:02.306Z,18.76
2024-04-21T01:54:32.796Z,18.57
2024-04-21T01:57:03.137Z,18.62
2024-04-21T01:59:33.531Z,18.64
2024-04-21T02:02:03.828Z,18.56
2024-04-21T02:04:35.304Z,18.45
2024-04-21T02:07:07.516Z,18.31
2024-04-21T02:09:38.627Z,18.28
2024-04-21T02:12:09.257Z,18.33
2024-04-21T02:14:39.915Z,18.38
2024-04-21T02:17:10.361Z,18.35
2024-04-21T02:19:40.818Z,18.38
2024-04-21T02:22:11.217Z,18.33
2024-04-21T02:24:45.758Z,18.28
2024-04-21T02:27:16.699Z,18.26
2024-04-21T02:29:47.131Z,18.28
2024-04-21T02:32:17.538Z,18.21
2024-04-21T02:34:48.394Z,18.18
2024-04-21T02:37:18.815Z,18.24
2024-04-21T02:39:49.350Z,18.21
2024-04-21T02:42:20.574Z,18.21
2024-04-21T02:44:50.928Z,18.18
2024-04-21T02:47:21.289Z,18.15
2024-04-21T02:49:52.010Z,18.12
2024-04-21T02:52:22.369Z,18.05
2024-04-21T02:54:52.701Z,18.04
2024-04-21T02:57:23.131Z,17.98
2024-04-21T02:59:53.465Z,17.94
2024-04-21T03:02:23.674Z,17.90
2024-04-21T03:04:55.411Z,17.85
2024-04-21T03:07:25.742Z,17.88
2024-04-21T03:09:56.024Z,17.85
2024-04-21T03:12:26.378Z,17.85
2024-04-21T03:14:56.733Z,17.88
2024-04-21T03:17:27.162Z,17.95
2024-04-21T03:19:57.601Z,17.91
2024-04-21T03:22:27.958Z,17.92
2024-04-21T03:24:58.447Z,17.90
2024-04-21T03:27:28.621Z,17.91
2024-04-21T03:29:59.055Z,17.90
2024-04-21T03:32:29.460Z,17.81
2024-04-21T03:34:59.969Z,17.73
2024-04-21T03:37:30.338Z,17.64
2024-04-21T03:40:02.859Z,17.64
2024-04-21T03:42:33.246Z,17.69
2024-04-21T03:45:03.718Z,17.73
2024-04-21T03:47:34.291Z,17.74
2024-04-21T03:50:04.881Z,17.64
2024-04-21T03:52:35.258Z,17.64
2024-04-21T03:55:05.821Z,17.70
2024-04-21T03:57:36.334Z,17.70
2024-04-21T04:00:07.630Z,17.69
2024-04-21T04:02:38.648Z,17.69
2024-04-21T04:05:10.101Z,17.70
2024-04-21T04:07:40.410Z,17.64
2024-04-21T04:10:10.937Z,17.66
2024-04-21T04:12:47.630Z,17.70
2024-04-21T04:15:19.617Z,17.70
2024-04-21T04:17:50.228Z,17.63
2024-04-21T04:20:20.690Z,17.57
2024-04-21T04:22:51.115Z,17.60
2024-04-21T04:25:21.527Z,17.60
2024-04-21T04:27:51.800Z,17.55
2024-04-21T04:30:22.309Z,17.43
2024-04-21T04:32:52.719Z,17.43
2024-04-21T04:35:23.046Z,17.40
2024-04-21T04:37:55.362Z,17.40
2024-04-21T04:40:26.208Z,17.33
2024-04-21T04:42:56.723Z,17.34
2024-04-21T04:45:27.245Z,17.29
2024-04-21T04:47:57.567Z,17.24
2024-04-21T04:50:27.810Z,17.12
2024-04-21T04:52:59.241Z,17.15
2024-04-21T04:55:29.540Z,17.12
2024-04-21T04:57:59.702Z,17.09
2024-04-21T05:00:30.055Z,16.99
2024-04-21T05:03:00.398Z,17.02
2024-04-21T05:05:31.593Z,17.09
2024-04-21T05:08:01.938Z,17.09
2024-04-21T05:10:32.412Z,17.03
2024-04-21T05:13:02.901Z,17.13
2024-04-21T05:15:33.431Z,17.15
2024-04-21T05:18:03.945Z,17.18
2024-04-21T05:20:34.446Z,17.16
2024-04-21T05:23:04.834Z,17.18
2024-04-21T05:25:35.308Z,17.19
2024-04-21T05:28:05.885Z,17.22
2024-04-21T05:30:36.431Z,17.19
2024-04-21T05:33:07.015Z,17.10
2024-04-21T05:35:37.522Z,17.02
2024-04-21T05:38:07.997Z,17.00
2024-04-21T05:40:38.514Z,17.05
2024-04-21T05:43:08.991Z,17.02
2024-04-21T05:45:39.442Z,17.05
2024-04-21T05:48:10.500Z,16.99
2024-04-21T05:50:45.312Z,16.93
2024-04-21T05:53:15.719Z,16.96
2024-04-21T05:55:46.166Z,17.00
2024-04-21T05:58:16.678Z,16.93
2024-04-21T06:00:47.239Z,16.88
2024-04-21T06:03:17.622Z,16.86
2024-04-21T06:05:48.875Z,16.83
2024-04-21T06:08:19.247Z,16.81
2024-04-21T06:10:49.743Z,16.71
2024-04-21T06:13:20.190Z,16.59
2024-04-21T06:15:50.624Z,16.61
2024-04-21T06:18:20.937Z,16.64
2024-04-21T06:20:51.480Z,16.65
2024-04-21T06:23:21.895Z,16.58
2024-04-21T06:25:52.278Z,16.58
2024-04-21T06:28:22.829Z,16.57
2024-04-21T06:30:53.410Z,16.57
2024-04-21T06:33:23.842Z,16.58
2024-04-21T06:35:54.327Z,16.62
2024-04-21T06:38:24.729Z,16.57
2024-04-21T06:40:55.176Z,16.52
2024-04-21T06:43:25.938Z,16.52
2024-04-21T06:45:56.392Z,16.49
2024-04-21T06:48:26.882Z,16.35
2024-04-21T06:50:57.443Z,16.37
2024-04-21T06:53:27.932Z,16.40
2024-04-21T06:55:58.392Z,16.41
2024-04-21T06:58:28.813Z,16.38
2024-04-21T07:00:59.309Z,16.37
2024-04-21T07:03:29.720Z,16.32
2024-04-21T07:06:00.916Z,16.31
2024-04-21T07:08:31.315Z,16.30
2024-04-21T07:11:02.497Z,16.31
2024-04-21T07:13:32.572Z,16.30
2024-04-21T07:16:02.814Z,16.34
2024-04-21T07:18:33.491Z,16.27
2024-04-21T07:21:06.021Z,16.27
2024-04-21T07:23:36.639Z,16.21
2024-04-21T07:26:07.291Z,16.22
2024-04-21T07:28:37.654Z,16.24
2024-04-21T07:31:08.121Z,16.25
2024-04-21T07:33:38.432Z,16.21
2024-04-21T07:36:08.988Z,16.20
2024-04-21T07:38:39.368Z,16.20
2024-04-21T07:41:09.862Z,16.24
2024-04-21T07:43:40.243Z,16.20
2024-04-21T07:46:10.738Z,16.20
2024-04-21T07:48:41.184Z,16.16
2024-04-21T07:51:13.550Z,16.06
2024-04-21T07:53:45.353Z,16.07
2024-04-21T07:56:15.816Z,16.08
2024-04-21T07:58:46.193Z,16.03
2024-04-21T08:01:16.704Z,16.06
2024-04-21T08:03:46.984Z,16.04
2024-04-21T08:06:18.561Z,16.07
2024-04-21T08:08:53.306Z,16.06
2024-04-21T08:11:28.185Z,16.01
2024-04-21T08:13:58.580Z,16.00
2024-04-21T08:16:29.103Z,15.99
2024-04-21T08:18:59.527Z,15.96
2024-04-21T08:21:29.909Z,15.94
2024-04-21T08:24:00.298Z,15.85
2024-04-21T08:26:31.090Z,15.83
2024-04-21T08:29:01.484Z,15.86
2024-04-21T08:31:31.952Z,15.82
2024-04-21T08:34:02.978Z,15.86
2024-04-21T08:36:33.512Z,15.89
2024-04-21T08:39:04.038Z,15.91
2024-04-21T08:42:01.434Z,15.89
2024-04-21T08:44:33.204Z,15.91
2024-04-21T08:47:06.096Z,15.87
2024-04-21T08:49:36.712Z,15.77
2024-04-21T08:52:12.530Z,15.82
2024-04-21T08:54:43.001Z,15.83
2024-04-21T08:57:15.979Z,15.79
2024-04-21T08:59:46.942Z,15.71
2024-04-21T09:02:17.676Z,15.73
2024-04-21T09:04:48.227Z,15.67
2024-04-21T09:07:21.087Z,15.58
2024-04-21T09:09:51.555Z,15.49
2024-04-21T09:12:22.609Z,15.45
2024-04-21T09:14:53.227Z,15.42
2024-04-21T09:17:23.985Z,15.43
2024-04-21T09:19:55.276Z,15.38
2024-04-21T09:22:25.812Z,15.32
2024-04-21T09:24:56.533Z,15.29
2024-04-21T09:27:31.383Z,15.32
2024-04-21T09:30:03.800Z,15.40
2024-04-21T09:32:36.169Z,15.40
2024-04-21T09:35:07.142Z,15.38
2024-04-21T09:37:37.637Z,15.32
2024-04-21T09:40:08.830Z,15.34
2024-04-21T09:42:39.509Z,15.34
2024-04-21T09:45:11.176Z,15.32
2024-04-21T09:47:41.347Z,15.31
2024-04-21T09:50:14.091Z,15.28
2024-04-21T09:52:49.760Z,15.25
2024-04-21T09:55:22.060Z,15.17
2024-04-21T09:58:02.915Z,15.15
2024-04-21T10:00:34.358Z,15.09
2024-04-21T10:03:07.223Z,15.12
2024-04-21T10:05:38.757Z,15.15
2024-04-21T10:08:10.515Z,15.17
2024-04-21T10:10:42.736Z,15.22
2024-04-21T10:13:13.510Z,15.25
2024-04-21T10:15:45.165Z,15.24
2024-04-21T10:18:26.302Z,15.31
2024-04-21T10:20:56.992Z,15.38
2024-04-21T10:23:27.456Z,15.42
2024-04-21T10:25:57.838Z,15.52
2024-04-21T10:28:30.872Z,15.58
2024-04-21T10:31:11.267Z,15.59
2024-04-21T10:33:45.703Z,15.60
2024-04-21T10:36:22.871Z,15.70
2024-04-21T10:38:57.046Z,15.70
2024-04-21T10:41:27.999Z,15.71
2024-04-21T10:43:58.416Z,15.73
2024-04-21T10:46:32.006Z,15.80
2024-04-21T10:49:02.486Z,15.83
2024-04-21T10:51:36.313Z,15.85
2024-04-21T10:54:10.368Z,15.91
2024-04-21T10:56:40.977Z,15.96
2024-04-21T10:59:11.334Z,15.96
2024-04-21T11:01:41.841Z,15.94
2024-04-21T11:04:12.398Z,16.01
2024-04-21T11:06:42.986Z,16.07
2024-04-21T11:09:14.539Z,16.14
2024-04-21T11:11:44.413Z,16.16
2024-04-21T11:14:14.563Z,16.21
2024-04-21T11:16:52.560Z,16.25
2024-04-21T11:19:23.978Z,16.34
2024-04-21T11:21:54.475Z,16.41
2024-04-21T11:24:25.173Z,16.47
2024-04-21T11:26:55.623Z,16.55
2024-04-21T11:29:26.059Z,16.62
2024-04-21T11:31:56.493Z,16.71
2024-04-21T11:34:42.070Z,16.78
2024-04-21T11:37:22.293Z,16.85
2024-04-21T11:39:52.712Z,16.92
2024-04-21T11:42:23.054Z,16.99
2024-04-21T11:44:53.641Z,17.09
2024-04-21T11:47:24.775Z,17.19
2024-04-21T11:49:56.213Z,17.26
2024-04-21T11:52:26.659Z,17.31
2024-04-21T11:54:57.211Z,17.43
2024-04-21T11:57:27.564Z,17.49
2024-04-21T11:59:58.047Z,17.57
2024-04-21T12:02:29.246Z,17.64
2024-04-21T12:04:59.751Z,17.75
2024-04-21T12:07:30.341Z,17.90
2024-04-21T12:10:01.673Z,18.04
2024-04-21T12:12:32.132Z,18.16
2024-04-21T12:15:03.221Z,18.25
2024-04-21T12:17:33.667Z,18.35
2024-04-21T12:20:04.122Z,18.42
2024-04-21T12:22:34.602Z,18.57
2024-04-21T12:25:05.163Z,18.66
2024-04-21T12:27:35.481Z,18.73
2024-04-21T12:30:07.540Z,18.87
2024-04-21T12:32:38.087Z,19.04
2024-04-21T12:35:08.680Z,19.15
2024-04-21T12:37:39.089Z,19.25
2024-04-21T12:40:09.878Z,19.31
2024-04-21T12:42:40.778Z,19.41
2024-04-21T12:45:11.677Z,19.52
2024-04-21T12:47:42.664Z,19.64
2024-04-21T12:50:13.082Z,19.69
2024-04-21T12:52:44.622Z,19.83
2024-04-21T12:55:14.625Z,19.92
2024-04-21T12:57:44.788Z,20.03
2024-04-21T13:00:16.901Z,20.22
2024-04-21T13:02:47.379Z,20.40
2024-04-21T13:05:18.239Z,20.51
2024-04-21T13:07:48.626Z,20.73
2024-04-21T13:10:19.934Z,20.88
2024-04-21T13:12:50.516Z,21.08
2024-04-21T13:15:20.891Z,21.18
2024-04-21T13:17:52.424Z,21.25
2024-04-21T13:20:22.458Z,21.45
2024-04-21T13:22:54.146Z,21.46
2024-04-21T13:25:24.517Z,21.65
2024-04-21T13:27:54.950Z,21.82
2024-04-21T13:30:25.475Z,21.82
2024-04-21T13:32:56.052Z,22.00
2024-04-21T13:35:26.479Z,22.20
2024-04-21T13:37:56.913Z,22.34
2024-04-21T13:40:27.485Z,22.49
2024-04-21T13:42:57.981Z,22.73
2024-04-21T13:45:28.417Z,23.19
2024-04-21T13:47:58.653Z,23.43
2024-04-21T13:50:29.788Z,23.66
2024-04-21T13:53:00.172Z,23.84
2024-04-21T13:55:30.490Z,23.98
2024-04-21T13:58:00.939Z,24.43
2024-04-21T14:00:31.366Z,24.72
2024-04-21T14:03:01.624Z,24.99
2024-04-21T14:05:32.119Z,25.44
2024-04-21T14:08:02.461Z,25.60
2024-04-21T14:10:33.854Z,25.88
2024-04-21T14:13:04.627Z,26.06
2024-04-21T14:15:35.413Z,26.16
2024-04-21T14:18:06.047Z,26.22
2024-04-21T14:20:36.605Z,26.33
2024-04-21T14:23:07.123Z,26.50
2024-04-21T14:25:37.626Z,26.77
2024-04-21T14:28:08.172Z,26.86
2024-04-21T14:30:38.649Z,26.88
2024-04-21T14:33:09.304Z,26.94
2024-04-21T14:35:40.134Z,27.04
2024-04-21T14:38:10.585Z,27.27
2024-04-21T14:40:41.115Z,27.38
2024-04-21T14:43:13.186Z,27.56
2024-04-21T14:45:50.145Z,27.59
2024-04-21T14:48:21.073Z,27.70
2024-04-21T14:51:01.586Z,27.67
2024-04-21T14:53:32.206Z,27.81
2024-04-21T14:56:06.549Z,27.99
2024-04-21T14:58:36.939Z,28.02
2024-04-21T15:01:07.577Z,28.09
2024-04-21T15:03:38.026Z,27.99
2024-04-21T15:06:08.708Z,28.00
2024-04-21T15:08:39.099Z,28.18
2024-04-21T15:11:11.225Z,28.36
2024-04-21T15:13:41.730Z,28.71
2024-04-21T15:16:12.174Z,28.94
2024-04-21T15:18:42.559Z,29.01
2024-04-21T15:21:13.399Z,29.15
2024-04-21T15:23:43.763Z,28.94
2024-04-21T15:26:14.020Z,29.06
2024-04-21T15:28:44.458Z,29.12
2024-04-21T15:31:15.436Z,29.22
2024-04-21T15:33:45.803Z,29.22
2024-04-21T15:36:16.126Z,29.15
2024-04-21T15:38:46.595Z,29.16
2024-04-21T15:41:16.973Z,29.46
2024-04-21T15:43:47.315Z,29.62
2024-04-21T15:46:17.592Z,29.66
2024-04-21T15:48:48.016Z,29.59
2024-04-21T15:51:23.073Z,29.63
2024-04-21T15:53:53.568Z,29.81
2024-04-21T15:56:24.046Z,29.94
2024-04-21T15:58:54.338Z,29.91
2024-04-21T16:01:25.718Z,29.96
2024-04-21T16:03:56.174Z,30.13
2024-04-21T16:06:26.686Z,30.34
2024-04-21T16:08:57.073Z,29.93
2024-04-21T16:11:28.650Z,30.11
2024-04-21T16:13:59.109Z,30.28
2024-04-21T16:16:29.812Z,30.55
2024-04-21T16:19:00.262Z,30.76
2024-04-21T16:21:30.724Z,30.82
2024-04-21T16:24:01.668Z,30.92
2024-04-21T16:26:32.240Z,30.92
2024-04-21T16:29:02.592Z,30.56
2024-04-21T16:31:33.121Z,30.44
2024-04-21T16:34:03.657Z,30.15
2024-04-21T16:36:34.246Z,30.28
2024-04-21T16:39:04.977Z,30.41
2024-04-21T16:41:35.958Z,30.66
2024-04-21T16:44:06.723Z,30.78
2024-04-21T16:46:40.090Z,30.95
2024-04-21T16:49:10.918Z,31.26
2024-04-21T16:51:41.602Z,31.41
2024-04-21T16:54:12.387Z,31.02
2024-04-21T16:56:47.086Z,31.34
2024-04-21T16:59:18.385Z,31.03
2024-04-21T17:01:49.716Z,31.03
2024-04-21T17:04:20.426Z,31.54
2024-04-21T17:06:53.892Z,31.73
2024-04-21T17:09:24.666Z,31.88
2024-04-21T17:11:57.191Z,32.31
2024-04-21T17:14:27.513Z,32.37
2024-04-21T17:16:58.224Z,32.73
2024-04-21T17:19:30.789Z,33.43
2024-04-21T17:22:01.319Z,33.13
2024-04-21T17:24:31.886Z,33.18
2024-04-21T17:27:02.345Z,33.18
2024-04-21T17:29:32.791Z,34.47
2024-04-21T17:32:03.302Z,34.93
2024-04-21T17:34:33.650Z,34.96
2024-04-21T17:37:04.055Z,35.75
2024-04-21T17:39:34.119Z,36.66
2024-04-21T17:42:04.473Z,37.07
2024-04-21T17:44:34.813Z,37.36
2024-04-21T17:47:05.429Z,38.07
2024-04-21T17:49:35.887Z,37.29
2024-04-21T17:52:07.753Z,37.41
2024-04-21T17:54:43.041Z,35.96
2024-04-21T17:57:18.992Z,36.37
2024-04-21T17:59:51.202Z,37.15
2024-04-21T18:02:21.620Z,37.54
2024-04-21T18:04:54.025Z,37.85
2024-04-21T18:07:27.191Z,37.93
2024-04-21T18:09:59.158Z,37.15
2024-04-21T18:12:32.041Z,37.62
2024-04-21T18:15:02.594Z,37.80
2024-04-21T18:17:33.152Z,37.66
2024-04-21T18:20:03.049Z,37.22
2024-04-21T18:22:33.515Z,38.09
2024-04-21T18:25:03.501Z,39.12
2024-04-21T18:27:33.619Z,37.56
2024-04-21T18:30:04.111Z,37.99
2024-04-21T18:32:34.506Z,38.07
2024-04-21T18:35:04.490Z,38.65
2024-04-21T18:37:34.597Z,38.95
2024-04-21T18:40:07.368Z,38.54
2024-04-21T18:42:37.998Z,38.56
2024-04-21T18:45:09.604Z,37.89
2024-04-21T18:47:40.020Z,37.72
2024-04-21T18:50:10.672Z,37.94
2024-04-21T18:52:40.605Z,38.99
2024-04-21T18:55:10.757Z,39.56
2024-04-21T18:57:41.256Z,39.02
2024-04-21T19:00:12.160Z,39.05
2024-04-21T19:02:42.666Z,36.25
2024-04-21T19:05:13.072Z,33.65
2024-04-21T19:07:43.481Z,32.45
2024-04-21T19:10:14.119Z,31.31
2024-04-21T19:12:45.903Z,30.79
2024-04-21T19:15:16.694Z,30.51
2024-04-21T19:17:47.530Z,31.63
2024-04-21T19:20:18.515Z,33.28
2024-04-21T19:22:49.174Z,31.99
2024-04-21T19:25:19.869Z,30.28
2024-04-21T19:27:49.968Z,29.54
2024-04-21T19:30:20.376Z,28.94
2024-04-21T19:32:50.829Z,29.01
2024-04-21T19:35:21.305Z,29.06
2024-04-21T19:37:51.525Z,28.91
2024-04-21T19:40:21.910Z,28.65
2024-04-21T19:42:52.364Z,28.55
2024-04-21T19:45:22.595Z,28.41
2024-04-21T19:47:53.233Z,28.37
2024-04-21T19:50:23.353Z,28.28
2024-04-21T19:52:53.473Z,28.20
2024-04-21T19:55:23.977Z,28.06
2024-04-21T19:57:54.397Z,27.86
2024-04-21T20:00:24.552Z,27.83
2024-04-21T20:02:54.991Z,27.89
2024-04-21T20:05:25.316Z,27.88
2024-04-21T20:07:55.565Z,27.72
2024-04-21T20:10:26.953Z,27.61
2024-04-21T20:12:58.336Z,27.56
2024-04-21T20:15:46.882Z,27.52
2024-04-21T20:18:37.826Z,27.49
2024-04-21T20:21:09.005Z,27.38
2024-04-21T20:23:39.432Z,27.28
2024-04-21T20:26:15.379Z,27.31
2024-04-21T20:28:45.794Z,27.15
2024-04-21T20:31:21.755Z,27.08
2024-04-21T20:33:52.542Z,26.95
2024-04-21T20:36:48.262Z,26.88
2024-04-21T20:39:18.757Z,26.79
2024-04-21T20:41:49.054Z,26.60
2024-04-21T20:44:19.590Z,26.46
2024-04-21T20:46:50.103Z,26.44
2024-04-21T20:49:20.533Z,26.37
2024-04-21T20:51:50.710Z,26.29
2024-04-21T20:54:21.723Z,26.18
2024-04-21T20:56:51.686Z,26.06
2024-04-21T20:59:23.560Z,25.89
2024-04-21T21:01:54.232Z,25.82
2024-04-21T21:04:24.839Z,25.72
2024-04-21T21:06:55.285Z,25.61
2024-04-21T21:09:25.788Z,25.52
2024-04-21T21:11:56.223Z,25.38
2024-04-21T21:14:32.467Z,25.20
2024-04-21T21:17:02.940Z,25.09
2024-04-21T21:19:33.809Z,25.00
2024-04-21T21:22:04.131Z,25.02
2024-04-21T21:24:34.526Z,24.99
2024-04-21T21:27:05.001Z,24.90
2024-04-21T21:29:35.479Z,24.72
2024-04-21T21:32:05.922Z,24.63
2024-04-21T21:34:36.493Z,24.58
2024-04-21T21:37:07.095Z,24.49
2024-04-21T21:39:37.530Z,24.30
2024-04-21T21:42:08.019Z,24.22
2024-04-21T21:44:38.510Z,24.17
2024-04-21T21:47:09.182Z,24.05
2024-04-21T21:49:39.755Z,23.94
2024-04-21T21:52:10.274Z,23.84
2024-04-21T21:54:40.908Z,23.74
2024-04-21T21:57:11.276Z,23.64
2024-04-21T21:59:41.705Z,23.54
2024-04-21T22:02:12.269Z,23.50
2024-04-21T22:04:42.781Z,23.46
2024-04-21T22:07:13.075Z,23.45
2024-04-21T22:09:43.573Z,23.40
2024-04-21T22:12:14.013Z,23.34
2024-04-21T22:14:45.735Z,23.39
2024-04-21T22:17:16.152Z,23.40
2024-04-21T22:19:48.418Z,23.46
2024-04-21T22:22:18.819Z,23.54
2024-04-21T22:24:49.329Z,23.57
2024-04-21T22:27:19.741Z,23.58
2024-04-21T22:29:50.301Z,23.56
2024-04-21T22:32:20.760Z,23.51
2024-04-21T22:34:55.445Z,23.43
2024-04-21T22:37:25.891Z,23.29
2024-04-21T22:39:56.488Z,23.17
2024-04-21T22:42:28.369Z,23.09
2024-04-21T22:44:58.899Z,23.03
2024-04-21T22:47:31.144Z,23.09
2024-04-21T22:50:02.065Z,23.03
2024-04-21T22:52:32.551Z,22.96
2024-04-21T22:55:03.387Z,22.88
2024-04-21T22:57:34.274Z,22.79
2024-04-21T23:00:04.812Z,22.65
2024-04-21T23:02:35.329Z,22.59
2024-04-21T23:05:05.960Z,22.52
2024-04-21T23:07:36.481Z,22.54
2024-04-21T23:10:07.356Z,22.55
2024-04-21T23:12:37.734Z,22.55
2024-04-21T23:15:10.207Z,22.55
2024-04-21T23:17:40.724Z,22.49
2024-04-21T23:20:11.633Z,22.54
2024-04-21T23:22:42.099Z,22.55
2024-04-21T23:25:12.808Z,22.49
2024-04-21T23:27:43.912Z,22.47
2024-04-21T23:30:14.781Z,22.40
2024-04-21T23:32:45.382Z,22.28
2024-04-21T23:35:15.977Z,22.16
2024-04-21T23:37:46.361Z,22.07
2024-04-21T23:40:16.936Z,21.97
2024-04-21T23:42:47.529Z,21.90
2024-04-21T23:45:18.480Z,21.80
2024-04-21T23:47:50.925Z,21.59
2024-04-21T23:50:21.515Z,21.42
2024-04-21T23:52:51.947Z,21.35
2024-04-21T23:55:22.774Z,21.36
2024-04-21T23:57:53.162Z,21.29
